createdAt,value
2023-02-24T00:01:39.519Z,9.92
2023-02-24T00:04:11.558Z,9.92
2023-02-24T00:06:40.772Z,9.91
2023-02-24T00:09:12.622Z,9.90
2023-02-24T00:11:53.013Z,9.90
2023-02-24T00:14:19.898Z,9.89
2023-02-24T00:16:47.224Z,9.88
2023-02-24T00:19:19.356Z,9.88
2023-02-24T00:21:46.470Z,9.88
2023-02-24T00:24:13.697Z,9.88
2023-02-24T00:26:40.815Z,9.87
2023-02-24T00:29:10.662Z,9.87
2023-02-24T00:31:39.663Z,9.85
2023-02-24T00:34:07.085Z,9.85
2023-02-24T00:36:34.528Z,9.85
2023-02-24T00:39:09.308Z,9.85
2023-02-24T00:41:43.346Z,9.85
2023-02-24T00:44:14.671Z,9.83
2023-02-24T00:46:44.763Z,9.82
2023-02-24T00:49:17.395Z,9.81
2023-02-24T00:51:49.115Z,9.82
2023-02-24T00:54:17.471Z,9.81
2023-02-24T00:56:46.639Z,9.80
2023-02-24T00:59:15.620Z,9.78
2023-02-24T01:01:45.350Z,9.79
2023-02-24T01:04:13.050Z,9.78
2023-02-24T01:06:45.133Z,9.78
2023-02-24T01:09:14.072Z,9.76
2023-02-24T01:12:00.259Z,9.78
2023-02-24T01:14:30.156Z,9.77
2023-02-24T01:16:57.597Z,9.75
2023-02-24T01:19:30.535Z,9.76
2023-02-24T01:22:08.139Z,9.76
2023-02-24T01:24:39.586Z,9.76
2023-02-24T01:27:06.909Z,9.76
2023-02-24T01:29:39.477Z,9.75
2023-02-24T01:32:12.961Z,9.76
2023-02-24T01:34:42.678Z,9.74
2023-02-24T01:37:10.011Z,9.75
2023-02-24T01:39:37.261Z,9.75
2023-02-24T01:42:06.192Z,9.74
2023-02-24T01:44:33.317Z,9.75
2023-02-24T01:47:03.849Z,9.75
2023-02-24T01:49:37.892Z,9.71
2023-02-24T01:52:15.060Z,9.74
2023-02-24T01:54:45.376Z,9.72
2023-02-24T01:57:16.663Z,9.72
2023-02-24T01:59:44.860Z,9.72
2023-02-24T02:02:12.150Z,9.71
2023-02-24T02:04:55.113Z,9.71
2023-02-24T02:07:23.952Z,9.71
2023-02-24T02:09:54.661Z,9.71
2023-02-24T02:12:22.890Z,9.71
2023-02-24T02:14:52.469Z,9.71
2023-02-24T02:18:00.252Z,9.71
2023-02-24T02:20:47.923Z,9.68
2023-02-24T02:23:28.772Z,9.68
2023-02-24T02:25:58.601Z,9.68
2023-02-24T02:28:41.960Z,9.68
2023-02-24T02:31:25.896Z,9.67
2023-02-24T02:34:14.605Z,9.67
2023-02-24T02:36:47.759Z,9.68
2023-02-24T02:39:39.448Z,9.68
2023-02-24T02:42:14.330Z,9.67
2023-02-24T02:44:55.976Z,9.67
2023-02-24T02:47:35.160Z,9.66
2023-02-24T02:50:13.078Z,9.67
2023-02-24T02:52:58.449Z,9.66
2023-02-24T02:55:46.453Z,9.66
2023-02-24T02:58:21.499Z,9.66
2023-02-24T03:00:59.073Z,9.66
2023-02-24T03:03:28.005Z,9.66
2023-02-24T03:06:00.772Z,9.66
2023-02-24T03:08:29.664Z,9.66
2023-02-24T03:11:00.416Z,9.64
2023-02-24T03:13:30.384Z,9.66
2023-02-24T03:16:02.395Z,9.65
2023-02-24T03:18:59.695Z,9.64
2023-02-24T03:21:37.248Z,9.64
2023-02-24T03:24:06.397Z,9.63
2023-02-24T03:26:42.096Z,9.64
2023-02-24T03:29:19.059Z,9.63
2023-02-24T03:31:52.181Z,9.64
2023-02-24T03:34:24.141Z,9.64
2023-02-24T03:36:51.075Z,9.63
2023-02-24T03:39:18.084Z,9.64
2023-02-24T03:42:18.037Z,9.63
2023-02-24T03:44:45.639Z,9.62
2023-02-24T03:47:17.405Z,9.61
2023-02-24T03:49:44.253Z,9.59
2023-02-24T03:52:32.916Z,9.57
2023-02-24T03:55:44.660Z,9.57
2023-02-24T03:58:18.945Z,9.56
2023-02-24T04:00:58.803Z,9.56
2023-02-24T04:03:43.561Z,9.55
2023-02-24T04:06:46.641Z,9.55
2023-02-24T04:09:34.020Z,9.53
2023-02-24T04:12:18.825Z,9.54
2023-02-24T04:14:52.240Z,9.52
2023-02-24T04:17:25.132Z,9.53
2023-02-24T04:19:56.470Z,9.52
2023-02-24T04:22:25.164Z,9.51
2023-02-24T04:24:56.656Z,9.53
2023-02-24T04:27:24.250Z,9.54
2023-02-24T04:29:56.555Z,9.51
2023-02-24T04:32:27.942Z,9.50
2023-02-24T04:35:02.035Z,9.49
2023-02-24T04:37:33.851Z,9.49
2023-02-24T04:40:02.013Z,9.48
2023-02-24T04:42:29.184Z,9.47
2023-02-24T04:44:58.679Z,9.45
2023-02-24T04:47:28.829Z,9.45
2023-02-24T04:49:55.631Z,9.44
2023-02-24T04:52:22.557Z,9.44
2023-02-24T04:54:54.697Z,9.43
2023-02-24T04:57:22.756Z,9.42
2023-02-24T04:59:49.447Z,9.43
2023-02-24T05:02:18.928Z,9.42
2023-02-24T05:04:49.578Z,9.42
2023-02-24T05:07:16.426Z,9.41
2023-02-24T05:09:43.125Z,9.42
2023-02-24T05:12:09.840Z,9.41
2023-02-24T05:14:36.554Z,9.42
2023-02-24T05:17:03.381Z,9.41
2023-02-24T05:19:48.666Z,9.42
2023-02-24T05:22:17.615Z,9.41
2023-02-24T05:24:44.440Z,9.42
2023-02-24T05:27:11.181Z,9.40
2023-02-24T05:29:37.841Z,9.41
2023-02-24T05:32:05.710Z,9.41
2023-02-24T05:34:33.073Z,9.41
2023-02-24T05:37:01.886Z,9.42
2023-02-24T05:39:28.703Z,9.41
2023-02-24T05:41:57.015Z,9.43
2023-02-24T05:44:26.210Z,9.44
2023-02-24T05:46:58.454Z,9.44
2023-02-24T05:49:29.504Z,9.44
2023-02-24T05:52:00.865Z,9.43
2023-02-24T05:54:33.821Z,9.43
2023-02-24T05:57:06.258Z,9.43
2023-02-24T05:59:33.902Z,9.43
2023-02-24T06:02:07.297Z,9.42
2023-02-24T06:04:45.881Z,9.43
2023-02-24T06:07:34.608Z,9.41
2023-02-24T06:10:04.870Z,9.41
2023-02-24T06:12:34.227Z,9.40
2023-02-24T06:15:01.637Z,9.39
2023-02-24T06:17:29.123Z,9.41
2023-02-24T06:19:56.113Z,9.41
2023-02-24T06:22:24.786Z,9.37
2023-02-24T06:24:54.132Z,9.35
2023-02-24T06:27:24.855Z,9.35
2023-02-24T06:29:54.067Z,9.32
2023-02-24T06:32:26.231Z,9.14
2023-02-24T06:34:53.969Z,8.42
2023-02-24T06:37:22.891Z,7.85
2023-02-24T06:39:50.018Z,7.52
2023-02-24T06:42:16.856Z,7.28
2023-02-24T06:44:43.716Z,7.17
2023-02-24T06:47:14.893Z,7.13
2023-02-24T06:49:44.693Z,7.11
2023-02-24T06:52:12.022Z,7.06
2023-02-24T06:54:38.816Z,6.95
2023-02-24T06:57:05.615Z,6.92
2023-02-24T06:59:33.037Z,7.00
2023-02-24T07:02:02.170Z,7.14
2023-02-24T07:04:31.244Z,7.26
2023-02-24T07:07:03.415Z,7.31
2023-02-24T07:09:31.081Z,7.29
2023-02-24T07:11:58.899Z,7.38
2023-02-24T07:14:27.685Z,7.52
2023-02-24T07:16:54.987Z,7.60
2023-02-24T07:19:25.076Z,7.65
2023-02-24T07:22:00.144Z,7.70
2023-02-24T07:24:36.538Z,7.79
2023-02-24T07:27:06.855Z,7.83
2023-02-24T07:29:34.944Z,7.91
2023-02-24T07:32:03.710Z,7.98
2023-02-24T07:34:30.867Z,7.97
2023-02-24T07:36:58.014Z,7.88
2023-02-24T07:39:25.689Z,7.82
2023-02-24T07:41:55.236Z,7.84
2023-02-24T07:44:24.254Z,7.85
2023-02-24T07:46:51.706Z,7.88
2023-02-24T07:49:21.455Z,7.88
2023-02-24T07:51:53.075Z,7.91
2023-02-24T07:54:21.507Z,7.81
2023-02-24T07:56:56.579Z,7.80
2023-02-24T07:59:32.410Z,7.84
2023-02-24T08:02:00.629Z,7.94
2023-02-24T08:04:30.226Z,8.11
2023-02-24T08:06:59.177Z,8.12
2023-02-24T08:09:46.312Z,8.03
2023-02-24T08:12:21.692Z,7.91
2023-02-24T08:14:51.633Z,7.97
2023-02-24T08:17:26.593Z,8.11
2023-02-24T08:20:14.826Z,8.21
2023-02-24T08:22:52.278Z,8.28
2023-02-24T08:25:22.685Z,8.36
2023-02-24T08:28:07.463Z,8.47
2023-02-24T08:30:40.288Z,8.57
2023-02-24T08:33:10.383Z,8.59
2023-02-24T08:35:44.620Z,8.51
2023-02-24T08:38:15.827Z,8.44
2023-02-24T08:40:51.798Z,8.31
2023-02-24T08:43:25.143Z,8.17
2023-02-24T08:46:00.973Z,8.10
2023-02-24T08:48:37.503Z,8.04
2023-02-24T08:51:22.466Z,7.90
2023-02-24T08:53:55.526Z,7.87
2023-02-24T08:56:25.380Z,7.87
2023-02-24T08:59:05.693Z,7.87
2023-02-24T09:01:40.240Z,7.89
2023-02-24T09:04:12.492Z,7.95
2023-02-24T09:06:45.369Z,8.06
2023-02-24T09:09:17.660Z,8.12
2023-02-24T09:11:46.787Z,8.06
2023-02-24T09:14:27.470Z,8.03
2023-02-24T09:17:11.785Z,8.07
2023-02-24T09:19:50.003Z,8.04
2023-02-24T09:22:29.831Z,8.11
2023-02-24T09:25:18.255Z,8.26
2023-02-24T09:27:56.101Z,8.44
2023-02-24T09:30:36.437Z,8.55
2023-02-24T09:33:21.764Z,8.59
2023-02-24T09:36:20.329Z,8.61
2023-02-24T09:39:01.922Z,8.76
2023-02-24T09:41:32.726Z,8.92
2023-02-24T09:44:33.651Z,9.04
2023-02-24T09:47:51.270Z,9.17
2023-02-24T09:50:44.236Z,9.30
2023-02-24T09:53:19.702Z,9.28
2023-02-24T09:56:05.643Z,9.21
2023-02-24T09:58:48.116Z,8.91
2023-02-24T10:01:43.348Z,8.84
2023-02-24T10:04:31.822Z,9.36
2023-02-24T10:07:11.540Z,9.68
2023-02-24T10:09:42.708Z,9.59
2023-02-24T10:12:17.216Z,9.37
2023-02-24T10:15:15.067Z,9.12
2023-02-24T10:17:47.276Z,8.80
2023-02-24T10:20:31.337Z,8.85
2023-02-24T10:23:09.766Z,8.90
2023-02-24T10:25:54.309Z,8.84
2023-02-24T10:28:35.784Z,8.78
2023-02-24T10:31:10.607Z,8.73
2023-02-24T10:33:45.260Z,8.74
2023-02-24T10:36:17.992Z,8.73
2023-02-24T10:38:45.795Z,8.59
2023-02-24T10:41:14.164Z,8.45
2023-02-24T10:43:47.288Z,8.47
2023-02-24T10:46:41.085Z,8.50
2023-02-24T10:49:11.850Z,8.52
2023-02-24T10:51:41.794Z,8.47
2023-02-24T10:54:33.315Z,8.50
2023-02-24T10:57:15.550Z,8.49
2023-02-24T11:00:31.262Z,8.34
2023-02-24T11:03:08.436Z,8.21
2023-02-24T11:06:08.400Z,8.19
2023-02-24T11:08:39.930Z,8.14
2023-02-24T11:11:26.058Z,8.09
2023-02-24T11:14:12.895Z,8.29
2023-02-24T11:17:11.030Z,8.53
2023-02-24T11:19:59.435Z,8.78
2023-02-24T11:22:35.771Z,9.00
2023-02-24T11:25:12.659Z,9.18
2023-02-24T11:27:42.384Z,9.27
2023-02-24T11:30:24.369Z,9.19
2023-02-24T11:32:58.644Z,9.10
2023-02-24T11:35:30.222Z,9.09
2023-02-24T11:38:17.789Z,9.09
2023-02-24T11:40:48.931Z,9.00
2023-02-24T11:43:18.597Z,8.92
2023-02-24T11:46:07.782Z,9.17
2023-02-24T11:48:39.247Z,9.41
2023-02-24T11:51:14.316Z,9.51
2023-02-24T11:53:51.528Z,9.37
2023-02-24T11:56:28.566Z,9.26
2023-02-24T11:59:08.097Z,9.20
2023-02-24T12:02:01.367Z,9.26
2023-02-24T12:04:28.387Z,9.38
2023-02-24T12:07:13.038Z,9.35
2023-02-24T12:10:20.129Z,9.48
2023-02-24T12:13:02.049Z,9.51
2023-02-24T12:15:34.207Z,9.49
2023-02-24T12:18:07.539Z,9.48
2023-02-24T12:20:51.232Z,9.57
2023-02-24T12:23:24.657Z,9.72
2023-02-24T12:26:14.509Z,9.99
2023-02-24T12:29:16.295Z,10.32
2023-02-24T12:32:16.890Z,10.55
2023-02-24T12:34:58.769Z,10.81
2023-02-24T12:37:37.538Z,11.02
2023-02-24T12:40:31.101Z,10.93
2023-02-24T12:43:03.388Z,10.74
2023-02-24T12:45:50.526Z,10.50
2023-02-24T12:48:50.425Z,10.17
2023-02-24T12:51:33.674Z,10.09
2023-02-24T12:54:22.498Z,10.07
2023-02-24T12:56:59.049Z,10.02
2023-02-24T12:59:29.868Z,9.96
2023-02-24T13:02:00.328Z,9.87
2023-02-24T13:04:37.408Z,9.76
2023-02-24T13:07:37.003Z,9.62
2023-02-24T13:10:03.757Z,9.50
2023-02-24T13:12:50.590Z,9.39
2023-02-24T13:15:31.414Z,9.33
2023-02-24T13:17:58.817Z,9.27
2023-02-24T13:20:37.287Z,9.28
2023-02-24T13:23:19.234Z,9.25
2023-02-24T13:25:53.368Z,9.28
2023-02-24T13:28:25.199Z,9.36
2023-02-24T13:31:03.884Z,9.44
2023-02-24T13:33:39.156Z,9.37
2023-02-24T13:36:12.926Z,9.36
2023-02-24T13:38:42.790Z,9.45
2023-02-24T13:41:26.189Z,9.40
2023-02-24T13:43:59.058Z,9.36
2023-02-24T13:46:28.985Z,9.38
2023-02-24T13:49:10.539Z,9.36
2023-02-24T13:51:49.380Z,9.28
2023-02-24T13:54:40.734Z,9.27
2023-02-24T13:57:42.079Z,9.33
2023-02-24T14:00:28.812Z,9.40
2023-02-24T14:02:56.041Z,9.38
2023-02-24T14:05:34.550Z,9.32
2023-02-24T14:08:02.262Z,9.34
2023-02-24T14:10:31.817Z,9.34
2023-02-24T14:13:14.172Z,9.29
2023-02-24T14:15:43.278Z,9.10
2023-02-24T14:18:28.078Z,8.99
2023-02-24T14:20:56.484Z,9.04
2023-02-24T14:23:34.431Z,9.03
2023-02-24T14:26:08.785Z,8.95
2023-02-24T14:28:38.203Z,9.04
2023-02-24T14:31:08.830Z,9.14
2023-02-24T14:33:37.464Z,9.07
2023-02-24T14:36:05.566Z,9.12
2023-02-24T14:38:40.353Z,9.23
2023-02-24T14:41:30.032Z,9.39
2023-02-24T14:43:57.006Z,9.45
2023-02-24T14:46:24.214Z,9.45
2023-02-24T14:48:56.118Z,9.44
2023-02-24T14:51:31.576Z,9.31
2023-02-24T14:54:03.067Z,9.16
2023-02-24T14:56:34.663Z,9.28
2023-02-24T14:59:07.649Z,9.38
2023-02-24T15:01:37.628Z,9.43
2023-02-24T15:04:23.778Z,9.43
2023-02-24T15:06:50.680Z,9.30
2023-02-24T15:09:21.095Z,9.30
2023-02-24T15:11:49.129Z,9.33
2023-02-24T15:14:27.466Z,9.36
2023-02-24T15:17:00.851Z,9.39
2023-02-24T15:19:38.849Z,9.40
2023-02-24T15:22:28.702Z,9.39
2023-02-24T15:25:13.134Z,9.34
2023-02-24T15:27:50.172Z,9.33
2023-02-24T15:30:26.260Z,9.40
2023-02-24T15:33:18.625Z,9.33
2023-02-24T15:36:09.453Z,9.34
2023-02-24T15:38:41.294Z,9.42
2023-02-24T15:41:08.906Z,9.47
2023-02-24T15:43:37.100Z,9.45
2023-02-24T15:46:25.663Z,9.47
2023-02-24T15:48:53.478Z,9.45
2023-02-24T15:51:29.497Z,9.45
2023-02-24T15:53:56.278Z,9.50
2023-02-24T15:56:23.268Z,9.51
2023-02-24T15:58:50.240Z,9.51
2023-02-24T16:01:16.950Z,9.61
2023-02-24T16:03:43.735Z,9.76
2023-02-24T16:06:18.911Z,9.89
2023-02-24T16:08:47.633Z,9.97
2023-02-24T16:11:17.473Z,10.01
2023-02-24T16:13:48.638Z,9.91
2023-02-24T16:16:15.395Z,9.91
2023-02-24T16:18:42.392Z,9.89
2023-02-24T16:21:09.225Z,9.86
2023-02-24T16:23:40.792Z,9.79
2023-02-24T16:26:19.438Z,9.61
2023-02-24T16:28:54.121Z,9.36
2023-02-24T16:31:22.336Z,9.25
2023-02-24T16:33:54.895Z,9.22
2023-02-24T16:36:23.935Z,9.12
2023-02-24T16:38:51.679Z,9.06
2023-02-24T16:41:18.994Z,9.03
2023-02-24T16:43:45.738Z,9.01
2023-02-24T16:46:15.908Z,8.95
2023-02-24T16:48:45.120Z,8.95
2023-02-24T16:51:12.134Z,8.98
2023-02-24T16:53:38.834Z,9.01
2023-02-24T16:56:07.472Z,9.01
2023-02-24T16:58:34.447Z,8.98
2023-02-24T17:01:02.898Z,8.99
2023-02-24T17:03:42.589Z,8.94
2023-02-24T17:06:09.533Z,8.84
2023-02-24T17:08:36.337Z,8.78
2023-02-24T17:11:03.637Z,8.79
2023-02-24T17:13:30.371Z,8.81
2023-02-24T17:15:57.438Z,8.94
2023-02-24T17:18:25.129Z,9.10
2023-02-24T17:20:53.238Z,9.22
2023-02-24T17:23:20.256Z,9.34
2023-02-24T17:25:51.694Z,9.43
2023-02-24T17:32:18.714Z,9.62
2023-02-24T17:34:45.766Z,9.65
2023-02-24T17:37:13.151Z,9.71
2023-02-24T17:39:40.614Z,9.76
2023-02-24T17:42:07.318Z,9.79
2023-02-24T17:44:34.316Z,9.81
2023-02-24T17:47:01.204Z,9.83
2023-02-24T17:49:29.424Z,9.86
2023-02-24T17:51:56.204Z,9.88
2023-02-24T17:54:23.010Z,9.89
2023-02-24T17:56:49.824Z,9.89
2023-02-24T17:59:16.611Z,9.93
2023-02-24T18:01:43.426Z,9.95
2023-02-24T18:04:14.764Z,9.98
2023-02-24T18:06:42.670Z,9.97
2023-02-24T18:09:10.015Z,9.98
2023-02-24T18:11:36.847Z,10.00
2023-02-24T18:14:03.746Z,9.99
2023-02-24T18:16:30.725Z,10.01
2023-02-24T18:18:57.453Z,10.02
2023-02-24T18:21:24.249Z,10.04
2023-02-24T18:23:50.963Z,10.04
2023-02-24T18:26:17.981Z,10.04
2023-02-24T18:28:44.735Z,10.03
2023-02-24T18:31:14.267Z,10.05
2023-02-24T18:33:41.399Z,10.05
2023-02-24T18:36:09.173Z,10.05
2023-02-24T18:38:36.041Z,10.05
2023-02-24T18:41:15.730Z,10.06
2023-02-24T18:43:43.347Z,10.04
2023-02-24T18:46:14.780Z,10.04
2023-02-24T18:48:44.480Z,10.05
2023-02-24T18:51:12.677Z,10.05
2023-02-24T18:53:39.842Z,10.04
2023-02-24T18:56:11.976Z,10.06
2023-02-24T18:58:40.751Z,10.06
2023-02-24T19:01:13.267Z,10.05
2023-02-24T19:03:40.565Z,10.05
2023-02-24T19:06:07.545Z,10.05
2023-02-24T19:08:34.814Z,10.04
2023-02-24T19:11:08.529Z,10.05
2023-02-24T19:13:35.493Z,10.06
2023-02-24T19:16:02.522Z,10.06
2023-02-24T19:18:29.375Z,10.07
2023-02-24T19:20:56.150Z,10.07
2023-02-24T19:23:23.027Z,10.07
2023-02-24T19:25:49.958Z,10.07
2023-02-24T19:28:16.877Z,10.07
2023-02-24T19:30:43.738Z,10.08
2023-02-24T19:33:10.825Z,10.06
2023-02-24T19:35:42.079Z,10.06
2023-02-24T19:38:19.736Z,10.05
2023-02-24T19:40:46.550Z,10.03
2023-02-24T19:43:13.578Z,10.02
2023-02-24T19:45:42.280Z,10.04
2023-02-24T19:48:11.107Z,10.04
2023-02-24T19:50:41.646Z,10.06
2023-02-24T19:53:08.512Z,10.07
2023-02-24T19:55:36.075Z,10.04
2023-02-24T19:58:02.778Z,10.03
2023-02-24T20:00:30.313Z,10.01
2023-02-24T20:02:57.085Z,10.00
2023-02-24T20:05:25.019Z,9.98
2023-02-24T20:07:55.344Z,9.98
2023-02-24T20:10:26.966Z,9.97
2023-02-24T20:12:59.042Z,9.95
2023-02-24T20:15:27.017Z,9.96
2023-02-24T20:17:53.686Z,9.94
2023-02-24T20:20:20.781Z,9.93
2023-02-24T20:22:48.163Z,9.94
2023-02-24T20:25:15.790Z,9.91
2023-02-24T20:27:42.821Z,9.91
2023-02-24T20:30:13.243Z,9.90
2023-02-24T20:32:42.408Z,9.90
2023-02-24T20:35:10.476Z,9.89
2023-02-24T20:37:37.573Z,9.87
2023-02-24T20:40:05.170Z,9.86
2023-02-24T20:42:32.057Z,9.85
2023-02-24T20:44:59.101Z,9.84
2023-02-24T20:47:26.015Z,9.84
2023-02-24T20:49:53.016Z,9.84
2023-02-24T20:52:19.786Z,9.82
2023-02-24T20:54:47.153Z,9.82
2023-02-24T20:57:14.549Z,9.77
2023-02-24T20:59:49.294Z,9.79
2023-02-24T21:02:21.528Z,9.80
2023-02-24T21:04:49.060Z,9.79
2023-02-24T21:07:16.115Z,9.79
2023-02-24T21:09:43.418Z,9.78
2023-02-24T21:12:10.541Z,9.76
2023-02-24T21:14:37.325Z,9.74
2023-02-24T21:17:04.489Z,9.74
2023-02-24T21:19:31.377Z,9.74
2023-02-24T21:21:58.775Z,9.73
2023-02-24T21:24:25.511Z,9.73
2023-02-24T21:26:52.409Z,9.71
2023-02-24T21:29:19.106Z,9.72
2023-02-24T21:31:46.348Z,9.70
2023-02-24T21:34:16.675Z,9.69
2023-02-24T21:36:43.647Z,9.68
2023-02-24T21:39:14.601Z,9.67
2023-02-24T21:41:45.121Z,9.66
2023-02-24T21:44:14.230Z,9.64
2023-02-24T21:46:42.049Z,9.63
2023-02-24T21:49:14.896Z,9.62
2023-02-24T21:51:43.023Z,9.63
2023-02-24T21:54:12.458Z,9.59
2023-02-24T21:56:39.464Z,9.57
2023-02-24T21:59:08.992Z,9.56
2023-02-24T22:01:40.898Z,9.56
2023-02-24T22:04:10.260Z,9.55
2023-02-24T22:06:38.258Z,9.55
2023-02-24T22:09:06.905Z,9.52
2023-02-24T22:11:37.293Z,9.51
2023-02-24T22:14:07.164Z,9.52
2023-02-24T22:16:34.092Z,9.51
2023-02-24T22:19:01.035Z,9.50
2023-02-24T22:21:29.028Z,9.47
2023-02-24T22:24:01.260Z,9.47
2023-02-24T22:26:30.144Z,9.48
2023-02-24T22:28:56.911Z,9.47
2023-02-24T22:31:26.537Z,9.45
2023-02-24T22:33:53.383Z,9.43
2023-02-24T22:36:24.661Z,9.41
2023-02-24T22:38:51.688Z,9.40
2023-02-24T22:41:21.043Z,9.42
2023-02-24T22:43:48.288Z,9.41
2023-02-24T22:46:21.454Z,9.39
2023-02-24T22:48:48.529Z,9.36
2023-02-24T22:51:15.208Z,9.37
2023-02-24T22:53:44.278Z,9.36
2023-02-24T22:56:12.139Z,9.35
2023-02-24T22:58:39.151Z,9.35
2023-02-24T23:01:17.277Z,9.35
2023-02-24T23:03:46.262Z,9.34
2023-02-24T23:06:15.862Z,9.32
2023-02-24T23:08:45.964Z,9.30
2023-02-24T23:11:14.227Z,9.27
2023-02-24T23:13:42.387Z,9.28
2023-02-24T23:16:11.626Z,9.28
2023-02-24T23:18:38.526Z,9.26
2023-02-24T23:21:08.679Z,9.24
2023-02-24T23:23:36.998Z,9.24
2023-02-24T23:26:04.800Z,9.22
2023-02-24T23:28:31.693Z,9.21
2023-02-24T23:30:58.421Z,9.18
2023-02-24T23:33:25.225Z,9.17
2023-02-24T23:35:51.926Z,9.17
2023-02-24T23:38:18.748Z,9.16
2023-02-24T23:40:50.776Z,9.14
2023-02-24T23:43:18.457Z,9.12
2023-02-24T23:45:45.372Z,9.14
2023-02-24T23:48:13.862Z,9.12
2023-02-24T23:50:42.136Z,9.10
2023-02-24T23:53:09.182Z,9.07
2023-02-24T23:55:36.377Z,9.07
2023-02-24T23:58:03.640Z,9.04
